createdAt,value
2022-11-22T00:01:22.677Z,0.90
2022-11-22T00:03:49.255Z,0.80
2022-11-22T00:06:15.818Z,0.80
2022-11-22T00:08:42.382Z,1.00
2022-11-22T00:11:08.960Z,0.80
2022-11-22T00:13:35.521Z,1.20
2022-11-22T00:16:02.769Z,1.00
2022-11-22T00:18:29.547Z,0.90
2022-11-22T00:20:56.358Z,0.80
2022-11-22T00:23:23.145Z,0.70
2022-11-22T00:25:49.819Z,1.10
2022-11-22T00:28:16.384Z,0.90
2022-11-22T00:30:42.962Z,0.90
2022-11-22T00:33:09.527Z,0.90
2022-11-22T00:35:36.107Z,0.77
2022-11-22T00:38:02.678Z,0.80
2022-11-22T00:40:29.260Z,1.00
2022-11-22T00:42:55.829Z,1.00
2022-11-22T00:45:22.395Z,0.70
2022-11-22T00:47:48.968Z,0.80
2022-11-22T00:50:15.802Z,0.90
2022-11-22T00:52:42.366Z,0.80
2022-11-22T00:55:09.005Z,0.90
2022-11-22T00:57:35.565Z,0.80
2022-11-22T01:00:02.147Z,0.90
2022-11-22T01:02:28.715Z,1.03
2022-11-22T01:04:55.303Z,0.93
2022-11-22T01:07:21.910Z,0.80
2022-11-22T01:09:48.521Z,0.80
2022-11-22T01:12:15.093Z,1.00
2022-11-22T01:14:41.675Z,0.80
2022-11-22T01:17:08.240Z,0.90
2022-11-22T01:19:34.827Z,1.00
2022-11-22T01:22:01.401Z,0.93
2022-11-22T01:24:27.970Z,0.73
2022-11-22T01:26:54.827Z,0.80
2022-11-22T01:29:21.398Z,1.10
2022-11-22T01:31:47.975Z,1.00
2022-11-22T01:34:14.546Z,0.80
2022-11-22T01:36:41.142Z,0.80
2022-11-22T01:39:07.722Z,1.10
2022-11-22T01:41:34.310Z,0.87
2022-11-22T01:44:29.546Z,0.90
2022-11-22T01:47:19.470Z,0.80
2022-11-22T01:49:52.507Z,0.77
2022-11-22T01:52:20.521Z,1.00
2022-11-22T01:54:50.722Z,1.00
2022-11-22T01:57:19.600Z,0.90
2022-11-22T01:59:49.867Z,0.90
2022-11-22T02:02:16.493Z,0.90
2022-11-22T02:04:43.078Z,0.80
2022-11-22T02:07:22.749Z,0.93
2022-11-22T02:09:50.567Z,0.90
2022-11-22T02:12:17.363Z,0.93
2022-11-22T02:14:43.939Z,0.90
2022-11-22T02:17:10.528Z,1.00
2022-11-22T02:19:44.219Z,0.90
2022-11-22T02:22:23.186Z,0.80
2022-11-22T02:24:59.855Z,1.10
2022-11-22T02:27:26.475Z,0.90
2022-11-22T02:29:53.254Z,0.90
2022-11-22T02:32:19.830Z,1.00
2022-11-22T02:34:50.675Z,1.10
2022-11-22T02:37:25.705Z,0.90
2022-11-22T02:39:56.485Z,0.80
2022-11-22T02:42:24.498Z,0.73
2022-11-22T02:44:51.064Z,0.83
2022-11-22T02:47:17.629Z,0.80
2022-11-22T02:49:44.251Z,1.00
2022-11-22T02:52:10.844Z,0.80
2022-11-22T02:54:37.410Z,0.80
2022-11-22T02:57:04.051Z,0.80
2022-11-22T02:59:31.056Z,0.90
2022-11-22T03:02:03.006Z,0.80
2022-11-22T03:04:30.052Z,0.87
2022-11-22T03:06:57.669Z,0.90
2022-11-22T03:09:25.003Z,0.70
2022-11-22T03:11:51.706Z,0.97
2022-11-22T03:14:18.291Z,0.90
2022-11-22T03:16:45.258Z,0.90
2022-11-22T03:19:12.145Z,1.00
2022-11-22T03:21:39.269Z,1.00
2022-11-22T03:24:06.268Z,1.00
2022-11-22T03:26:32.840Z,1.00
2022-11-22T03:28:59.429Z,1.00
2022-11-22T03:31:26.163Z,0.87
2022-11-22T03:33:52.956Z,0.90
2022-11-22T03:36:19.595Z,1.17
2022-11-22T03:38:46.178Z,0.90
2022-11-22T03:41:12.737Z,0.90
2022-11-22T03:43:39.326Z,1.00
2022-11-22T03:46:05.891Z,0.80
2022-11-22T03:48:32.519Z,0.73
2022-11-22T03:51:05.897Z,0.97
2022-11-22T03:53:32.703Z,0.90
2022-11-22T03:56:00.041Z,1.00
2022-11-22T03:58:26.689Z,0.80
2022-11-22T04:00:53.259Z,0.90
2022-11-22T04:03:19.839Z,1.00
2022-11-22T04:05:46.402Z,0.90
2022-11-22T04:08:13.554Z,0.90
2022-11-22T04:10:40.135Z,0.90
2022-11-22T04:13:06.730Z,0.90
2022-11-22T04:15:33.561Z,0.83
2022-11-22T04:18:00.143Z,0.80
2022-11-22T04:20:46.802Z,0.93
2022-11-22T04:23:14.177Z,0.90
2022-11-22T04:25:42.743Z,0.90
2022-11-22T04:28:09.708Z,0.90
2022-11-22T04:30:54.947Z,0.90
2022-11-22T04:33:21.751Z,0.90
2022-11-22T04:35:48.430Z,1.00
2022-11-22T04:38:15.245Z,0.90
2022-11-22T04:40:41.923Z,0.90
2022-11-22T04:43:29.318Z,1.00
2022-11-22T04:45:55.886Z,0.90
2022-11-22T04:48:22.469Z,0.90
2022-11-22T04:51:07.468Z,1.00
2022-11-22T04:53:34.057Z,0.90
2022-11-22T04:56:00.645Z,0.70
2022-11-22T04:58:27.219Z,1.10
2022-11-22T05:00:53.855Z,1.00
2022-11-22T05:03:20.502Z,1.00
2022-11-22T05:05:47.074Z,0.90
2022-11-22T05:08:13.680Z,0.90
2022-11-22T05:10:58.425Z,1.00
2022-11-22T05:13:32.850Z,0.80
2022-11-22T05:15:59.596Z,1.00
2022-11-22T05:18:26.361Z,0.80
2022-11-22T05:20:52.999Z,1.10
2022-11-22T05:23:38.231Z,0.93
2022-11-22T05:26:07.426Z,0.97
2022-11-22T05:28:35.093Z,0.90
2022-11-22T05:31:10.041Z,1.00
2022-11-22T05:33:37.760Z,0.93
2022-11-22T05:36:04.881Z,1.00
2022-11-22T05:38:31.586Z,1.00
2022-11-22T05:40:58.167Z,0.93
2022-11-22T05:43:24.813Z,0.90
2022-11-22T05:45:51.399Z,0.90
2022-11-22T05:48:17.966Z,0.80
2022-11-22T05:50:44.554Z,0.90
2022-11-22T05:53:11.113Z,1.00
2022-11-22T05:55:37.703Z,0.83
2022-11-22T05:58:04.275Z,0.90
2022-11-22T06:00:30.987Z,0.83
2022-11-22T06:03:01.698Z,0.80
2022-11-22T06:05:28.693Z,0.90
2022-11-22T06:07:58.911Z,1.00
2022-11-22T06:10:25.601Z,1.10
2022-11-22T06:12:52.367Z,0.93
2022-11-22T06:15:18.965Z,0.90
2022-11-22T06:17:45.538Z,0.93
2022-11-22T06:20:12.427Z,1.00
2022-11-22T06:22:39.030Z,1.03
2022-11-22T06:25:05.995Z,0.93
2022-11-22T06:27:32.572Z,1.10
2022-11-22T06:29:59.157Z,1.00
2022-11-22T06:32:25.729Z,1.07
2022-11-22T06:34:52.302Z,0.80
2022-11-22T06:37:18.872Z,0.80
2022-11-22T06:39:45.454Z,0.90
2022-11-22T06:42:12.042Z,0.90
2022-11-22T06:44:38.622Z,1.03
2022-11-22T06:47:05.226Z,0.97
2022-11-22T06:49:32.192Z,0.90
2022-11-22T06:51:58.902Z,1.00
2022-11-22T06:54:25.469Z,0.97
2022-11-22T06:56:52.029Z,0.90
2022-11-22T06:59:18.600Z,0.80
2022-11-22T07:01:45.219Z,1.13
2022-11-22T07:04:11.810Z,0.80
2022-11-22T07:06:38.727Z,0.90
2022-11-22T07:09:07.404Z,0.90
2022-11-22T07:11:34.635Z,0.90
2022-11-22T07:14:07.577Z,1.00
2022-11-22T07:16:35.342Z,0.90
2022-11-22T07:19:01.920Z,1.00
2022-11-22T07:21:28.508Z,0.80
2022-11-22T07:23:55.282Z,1.00
2022-11-22T07:26:22.880Z,0.90
2022-11-22T07:28:49.524Z,0.90
2022-11-22T07:31:16.389Z,1.00
2022-11-22T07:33:43.274Z,0.90
2022-11-22T07:36:14.548Z,0.83
2022-11-22T07:38:41.143Z,1.00
2022-11-22T07:41:08.090Z,0.90
2022-11-22T07:43:34.671Z,0.97
2022-11-22T07:46:05.607Z,1.00
2022-11-22T07:48:32.256Z,0.97
2022-11-22T07:51:04.092Z,1.20
2022-11-22T07:53:30.688Z,0.90
2022-11-22T07:55:57.657Z,1.00
2022-11-22T07:58:24.241Z,0.83
2022-11-22T08:00:50.824Z,0.93
2022-11-22T08:03:18.278Z,0.90
2022-11-22T08:05:45.749Z,1.00
2022-11-22T08:08:12.316Z,1.10
2022-11-22T08:10:38.920Z,1.00
2022-11-22T08:13:06.090Z,1.00
2022-11-22T08:15:32.667Z,0.90
2022-11-22T08:17:59.263Z,0.90
2022-11-22T08:20:25.892Z,0.90
2022-11-22T08:22:52.461Z,1.00
2022-11-22T08:25:19.102Z,1.00
2022-11-22T08:27:45.671Z,1.00
2022-11-22T08:30:12.496Z,1.00
2022-11-22T08:32:39.065Z,0.90
2022-11-22T08:35:06.066Z,0.93
2022-11-22T08:37:32.677Z,0.90
2022-11-22T08:39:59.288Z,0.87
2022-11-22T08:42:25.907Z,0.90
2022-11-22T08:44:52.474Z,0.93
2022-11-22T08:47:19.066Z,0.70
2022-11-22T08:49:45.647Z,0.90
2022-11-22T08:52:12.441Z,0.90
2022-11-22T08:54:39.051Z,0.97
2022-11-22T08:57:05.632Z,0.90
2022-11-22T08:59:32.831Z,1.00
2022-11-22T09:01:59.894Z,1.17
2022-11-22T09:04:26.574Z,0.90
2022-11-22T09:09:39.764Z,1.00
2022-11-22T09:12:06.833Z,0.93
2022-11-22T09:14:33.410Z,0.90
2022-11-22T09:16:59.987Z,1.03
2022-11-22T09:19:26.560Z,0.90
2022-11-22T09:21:53.194Z,0.90
2022-11-22T09:24:19.765Z,0.80
2022-11-22T09:26:46.341Z,1.00
2022-11-22T09:29:12.994Z,0.87
2022-11-22T09:31:39.586Z,0.90
2022-11-22T09:34:06.734Z,1.00
2022-11-22T09:36:33.348Z,1.00
2022-11-22T09:38:59.928Z,0.90
2022-11-22T09:41:39.401Z,0.90
2022-11-22T09:44:36.836Z,0.90
2022-11-22T09:47:10.219Z,1.07
2022-11-22T09:49:55.928Z,1.10
2022-11-22T09:52:30.228Z,0.93
2022-11-22T09:55:02.061Z,1.00
2022-11-22T09:57:32.994Z,0.90
2022-11-22T10:00:03.729Z,1.07
2022-11-22T10:02:58.851Z,0.90
2022-11-22T10:05:26.100Z,1.10
2022-11-22T10:08:18.439Z,0.90
2022-11-22T10:10:45.035Z,0.90
2022-11-22T10:13:16.984Z,1.00
2022-11-22T10:16:09.921Z,1.00
2022-11-22T10:18:45.792Z,1.10
2022-11-22T10:21:13.242Z,0.90
2022-11-22T10:23:41.187Z,1.10
2022-11-22T10:26:34.990Z,0.90
2022-11-22T10:29:19.019Z,0.97
2022-11-22T10:32:08.399Z,1.00
2022-11-22T10:34:46.297Z,0.90
2022-11-22T10:37:38.288Z,0.80
2022-11-22T10:40:25.118Z,1.00
2022-11-22T10:43:02.128Z,1.00
2022-11-22T10:45:37.584Z,0.80
2022-11-22T10:48:26.011Z,1.00
2022-11-22T10:51:07.017Z,1.53
2022-11-22T10:53:57.601Z,1.10
2022-11-22T10:56:33.642Z,0.90
2022-11-22T10:59:35.181Z,1.03
2022-11-22T11:02:16.347Z,1.10
2022-11-22T11:04:42.937Z,1.10
2022-11-22T11:07:17.358Z,1.00
2022-11-22T11:10:10.860Z,1.00
2022-11-22T11:12:51.643Z,0.83
2022-11-22T11:15:21.932Z,1.07
2022-11-22T11:17:58.547Z,0.90
2022-11-22T11:20:31.528Z,1.10
2022-11-22T11:23:14.077Z,1.10
2022-11-22T11:25:45.346Z,1.07
2022-11-22T11:28:23.025Z,1.00
2022-11-22T11:31:09.545Z,0.90
2022-11-22T11:33:39.916Z,1.07
2022-11-22T11:36:17.375Z,0.90
2022-11-22T11:38:43.889Z,1.00
2022-11-22T11:41:21.317Z,1.00
2022-11-22T11:43:48.131Z,1.10
2022-11-22T11:46:28.308Z,0.97
2022-11-22T11:48:56.158Z,1.00
2022-11-22T11:51:25.934Z,1.00
2022-11-22T11:54:11.213Z,0.80
2022-11-22T11:56:51.650Z,1.07
2022-11-22T11:59:40.200Z,1.10
2022-11-22T12:02:17.567Z,0.90
2022-11-22T12:05:04.852Z,1.10
2022-11-22T12:07:34.236Z,1.10
2022-11-22T12:10:00.915Z,0.97
2022-11-22T12:12:46.697Z,0.90
2022-11-22T12:15:40.121Z,1.10
2022-11-22T12:18:27.606Z,1.00
2022-11-22T12:21:05.829Z,1.00
2022-11-22T12:23:47.968Z,0.97
2022-11-22T12:26:17.250Z,1.10
2022-11-22T12:28:44.090Z,1.00
2022-11-22T12:31:17.960Z,0.90
2022-11-22T12:33:50.157Z,1.03
2022-11-22T12:36:32.929Z,0.77
2022-11-22T12:38:59.919Z,1.10
2022-11-22T12:41:27.655Z,1.00
2022-11-22T12:43:59.112Z,1.00
2022-11-22T12:46:29.373Z,1.00
2022-11-22T12:48:57.212Z,1.00
2022-11-22T12:51:35.869Z,1.00
2022-11-22T12:54:04.005Z,0.97
2022-11-22T12:56:46.058Z,1.00
2022-11-22T12:59:35.174Z,0.90
2022-11-22T13:02:29.915Z,0.70
2022-11-22T13:05:05.478Z,1.00
2022-11-22T13:07:56.370Z,1.10
2022-11-22T13:10:38.958Z,0.90
2022-11-22T13:13:10.069Z,1.10
2022-11-22T13:15:36.834Z,1.00
2022-11-22T13:18:07.254Z,1.00
2022-11-22T13:20:41.148Z,1.07
2022-11-22T13:23:23.110Z,1.00
2022-11-22T13:26:01.762Z,1.10
2022-11-22T13:28:31.261Z,1.00
2022-11-22T13:31:05.868Z,0.90
2022-11-22T13:33:32.452Z,1.00
2022-11-22T13:36:26.877Z,0.90
2022-11-22T13:38:57.805Z,1.00
2022-11-22T13:41:36.112Z,1.10
2022-11-22T13:44:24.592Z,0.93
2022-11-22T13:46:58.530Z,1.00
2022-11-22T13:49:48.002Z,0.80
2022-11-22T13:52:15.279Z,1.20
2022-11-22T13:54:47.978Z,1.00
2022-11-22T13:57:24.577Z,1.00
2022-11-22T14:00:13.834Z,0.90
2022-11-22T14:02:43.097Z,1.10
2022-11-22T14:05:32.702Z,1.07
2022-11-22T14:08:01.461Z,1.10
2022-11-22T14:10:42.861Z,1.07
2022-11-22T14:13:33.027Z,1.10
2022-11-22T14:16:11.695Z,1.07
2022-11-22T14:19:02.423Z,1.17
2022-11-22T14:21:47.694Z,1.10
2022-11-22T14:24:16.964Z,1.07
2022-11-22T14:26:58.665Z,0.90
2022-11-22T14:29:42.762Z,1.10
2022-11-22T14:32:19.834Z,0.90
2022-11-22T14:35:04.774Z,1.00
2022-11-22T14:37:34.630Z,1.20
2022-11-22T14:40:07.029Z,1.10
2022-11-22T14:42:36.649Z,1.00
2022-11-22T14:45:12.020Z,1.00
2022-11-22T14:47:51.605Z,1.00
2022-11-22T14:50:31.151Z,1.00
2022-11-22T14:52:59.123Z,0.93
2022-11-22T14:55:33.102Z,0.90
2022-11-22T14:58:05.648Z,1.17
2022-11-22T15:00:58.561Z,1.10
2022-11-22T15:09:13.288Z,1.00
2022-11-22T15:09:21.289Z,1.07
2022-11-22T15:10:44.309Z,1.10
2022-11-22T15:13:49.707Z,1.03
2022-11-22T15:59:39.934Z,1.10
2022-11-22T16:02:20.888Z,0.93
2022-11-22T16:06:05.724Z,1.00
2022-11-22T16:07:53.480Z,1.10
2022-11-22T16:10:38.763Z,1.10
2022-11-22T16:13:20.330Z,1.20
2022-11-22T16:16:05.894Z,1.03
2022-11-22T16:18:32.817Z,1.20
2022-11-22T16:21:07.108Z,1.17
2022-11-22T16:23:34.992Z,1.10
2022-11-22T16:26:21.749Z,1.10
2022-11-22T16:28:50.776Z,1.10
2022-11-22T16:31:24.818Z,1.17
2022-11-22T16:33:51.899Z,1.10
2022-11-22T16:36:19.373Z,1.10
2022-11-22T16:38:46.092Z,1.17
2022-11-22T16:41:18.018Z,1.10
2022-11-22T16:43:44.691Z,1.00
2022-11-22T16:46:14.063Z,1.10
2022-11-22T16:48:41.188Z,1.20
2022-11-22T16:51:12.022Z,1.10
2022-11-22T16:53:41.340Z,1.10
2022-11-22T16:56:08.130Z,1.13
2022-11-22T16:58:34.752Z,1.20
2022-11-22T17:01:01.434Z,1.30
2022-11-22T17:03:31.830Z,1.10
2022-11-22T17:05:58.423Z,1.27
2022-11-22T17:08:25.038Z,1.30
2022-11-22T17:10:52.026Z,1.30
2022-11-22T17:13:21.579Z,1.00
2022-11-22T17:15:48.431Z,1.20
2022-11-22T17:18:15.189Z,1.17
2022-11-22T17:20:41.786Z,1.07
2022-11-22T17:23:14.938Z,1.40
2022-11-22T17:25:41.512Z,1.00
2022-11-22T17:28:08.089Z,1.40
2022-11-22T17:30:34.654Z,1.20
2022-11-22T17:33:01.240Z,1.20
2022-11-22T17:35:33.228Z,1.10
2022-11-22T17:38:02.440Z,1.10
2022-11-22T17:40:29.024Z,1.40
2022-11-22T17:42:55.645Z,1.30
2022-11-22T17:45:22.194Z,1.10
2022-11-22T17:47:48.771Z,1.07
2022-11-22T17:50:15.801Z,1.20
2022-11-22T17:52:42.378Z,1.20
2022-11-22T17:55:14.127Z,1.10
2022-11-22T17:57:41.193Z,1.27
2022-11-22T18:00:08.683Z,1.10
2022-11-22T18:02:35.553Z,1.27
2022-11-22T18:05:05.708Z,1.10
2022-11-22T18:07:32.608Z,1.27
2022-11-22T18:09:59.263Z,1.40
2022-11-22T18:12:25.867Z,1.20
2022-11-22T18:14:52.493Z,1.20
2022-11-22T18:17:19.061Z,1.10
2022-11-22T18:19:45.625Z,1.27
2022-11-22T18:22:12.237Z,1.23
2022-11-22T18:24:38.813Z,1.30
2022-11-22T18:27:05.419Z,1.20
2022-11-22T18:29:42.557Z,1.20
2022-11-22T18:32:09.624Z,1.10
2022-11-22T18:34:36.215Z,1.43
2022-11-22T18:37:04.196Z,1.20
2022-11-22T18:39:36.564Z,1.10
2022-11-22T18:42:05.169Z,1.20
2022-11-22T18:44:31.733Z,1.10
2022-11-22T18:46:58.344Z,1.17
2022-11-22T18:49:24.927Z,1.40
2022-11-22T18:51:51.487Z,1.30
2022-11-22T18:54:18.537Z,1.30
2022-11-22T18:56:45.151Z,1.03
2022-11-22T18:59:14.566Z,1.10
2022-11-22T19:01:41.129Z,1.20
2022-11-22T19:04:08.015Z,1.50
2022-11-22T19:06:34.610Z,1.27
2022-11-22T19:09:01.301Z,1.30
2022-11-22T19:11:29.618Z,1.13
2022-11-22T19:13:56.391Z,1.13
2022-11-22T19:16:23.415Z,1.10
2022-11-22T19:18:50.099Z,1.23
2022-11-22T19:21:18.173Z,1.30
2022-11-22T19:23:44.769Z,1.47
2022-11-22T19:26:15.962Z,1.30
2022-11-22T19:28:42.623Z,1.30
2022-11-22T19:31:17.520Z,1.40
2022-11-22T19:33:44.130Z,1.20
2022-11-22T19:36:17.451Z,1.23
2022-11-22T19:38:44.141Z,1.10
2022-11-22T19:41:11.494Z,1.37
2022-11-22T19:43:38.252Z,1.40
2022-11-22T19:46:05.517Z,1.50
2022-11-22T19:48:32.664Z,1.40
2022-11-22T19:51:04.245Z,1.50
2022-11-22T19:53:31.369Z,1.20
2022-11-22T19:56:05.238Z,1.40
2022-11-22T19:58:32.028Z,1.20
2022-11-22T20:01:11.695Z,1.20
2022-11-22T20:03:39.262Z,1.10
2022-11-22T20:06:06.612Z,1.50
2022-11-22T20:08:33.195Z,1.20
2022-11-22T20:11:06.851Z,1.20
2022-11-22T20:13:41.327Z,1.20
2022-11-22T20:16:09.092Z,1.30
2022-11-22T20:18:35.678Z,1.20
2022-11-22T20:21:02.876Z,1.40
2022-11-22T20:23:29.975Z,1.20
2022-11-22T20:26:03.628Z,1.20
2022-11-22T20:28:30.217Z,1.43
2022-11-22T20:31:18.454Z,1.37
2022-11-22T20:33:47.578Z,1.30
2022-11-22T20:36:15.901Z,1.50
2022-11-22T20:38:43.329Z,1.20
2022-11-22T20:41:13.383Z,1.30
2022-11-22T20:43:40.044Z,1.30
2022-11-22T20:46:11.093Z,1.20
2022-11-22T20:48:38.314Z,1.40
2022-11-22T20:51:09.733Z,1.50
2022-11-22T20:53:36.440Z,1.60
2022-11-22T20:56:03.436Z,1.50
2022-11-22T20:58:30.114Z,1.13
2022-11-22T21:00:56.858Z,1.40
2022-11-22T21:03:23.626Z,1.30
2022-11-22T21:05:51.282Z,1.30
2022-11-22T21:08:17.846Z,1.33
2022-11-22T21:10:44.434Z,1.27
2022-11-22T21:13:11.016Z,1.40
2022-11-22T21:15:37.641Z,1.30
2022-11-22T21:18:24.708Z,1.43
2022-11-22T21:20:52.123Z,1.33
2022-11-22T21:23:18.697Z,1.30
2022-11-22T21:25:46.142Z,1.13
2022-11-22T21:28:12.720Z,1.50
2022-11-22T21:30:39.308Z,1.40
2022-11-22T21:33:05.905Z,1.43
2022-11-22T21:35:32.490Z,1.30
2022-11-22T21:37:59.071Z,1.57
2022-11-22T21:40:25.639Z,1.30
2022-11-22T21:42:52.215Z,1.50
2022-11-22T21:45:18.786Z,1.30
2022-11-22T21:47:47.345Z,1.20
2022-11-22T21:50:15.218Z,1.40
2022-11-22T21:52:42.389Z,1.30
2022-11-22T21:55:09.668Z,1.43
2022-11-22T21:57:36.242Z,1.40
2022-11-22T22:00:04.237Z,1.50
2022-11-22T22:02:32.655Z,1.33
2022-11-22T22:04:59.230Z,1.20
2022-11-22T22:07:50.665Z,1.50
2022-11-22T22:10:12.610Z,1.30
2022-11-22T22:12:42.095Z,1.70
2022-11-22T22:15:14.403Z,1.50
2022-11-22T22:17:40.980Z,1.40
2022-11-22T22:20:08.121Z,1.30
2022-11-22T22:22:37.865Z,1.53
2022-11-22T22:25:05.233Z,1.20
2022-11-22T22:27:32.381Z,1.50
2022-11-22T22:29:59.446Z,1.33
2022-11-22T22:32:26.671Z,1.40
2022-11-22T22:34:53.647Z,1.43
2022-11-22T22:37:20.238Z,1.30
2022-11-22T22:39:46.816Z,1.40
2022-11-22T22:42:14.090Z,1.33
2022-11-22T22:44:40.655Z,1.40
2022-11-22T22:47:07.221Z,1.27
2022-11-22T22:49:34.012Z,1.40
2022-11-22T22:52:00.675Z,1.40
2022-11-22T22:54:27.258Z,1.40
2022-11-22T22:56:53.828Z,1.33
2022-11-22T22:59:20.397Z,1.37
2022-11-22T23:01:46.979Z,1.33
2022-11-22T23:04:13.542Z,1.20
2022-11-22T23:06:40.116Z,1.37
2022-11-22T23:09:08.220Z,1.50
2022-11-22T23:11:53.433Z,1.60
2022-11-22T23:14:21.827Z,1.50
2022-11-22T23:16:51.056Z,1.40
2022-11-22T23:19:19.989Z,1.30
2022-11-22T23:21:46.620Z,1.50
2022-11-22T23:24:13.189Z,1.50
2022-11-22T23:26:39.771Z,1.30
2022-11-22T23:29:06.363Z,1.40
2022-11-22T23:31:32.982Z,1.13
2022-11-22T23:34:00.483Z,1.30
2022-11-22T23:36:27.055Z,1.30
2022-11-22T23:38:53.632Z,1.40
2022-11-22T23:41:22.374Z,1.53
2022-11-22T23:43:55.506Z,1.30
2022-11-22T23:46:24.739Z,1.30
2022-11-22T23:48:55.734Z,1.30
2022-11-22T23:51:22.436Z,1.40
2022-11-22T23:53:49.071Z,1.30
2022-11-22T23:56:21.607Z,1.40
2022-11-22T23:58:48.694Z,1.40
